sensor_id;sensor_type;location;lat;lon;timestamp;temperature;humidity
10278;DHT22;5184;51.376;7.148;2024-03-23T00:55:22;6.50;1.00
10278;DHT22;5184;51.376;7.148;2024-03-23T00:57:50;6.70;1.00
10278;DHT22;5184;51.376;7.148;2024-03-23T01:00:17;6.50;1.00
10278;DHT22;5184;51.376;7.148;2024-03-23T01:02:44;6.40;1.00
10278;DHT22;5184;51.376;7.148;2024-03-23T01:05:10;6.50;1.00
10278;DHT22;5184;51.376;7.148;2024-03-23T01:07:37;6.50;1.00
10278;DHT22;5184;51.376;7.148;2024-03-23T01:10:04;6.50;1.00
10278;DHT22;5184;51.376;7.148;2024-03-23T01:12:30;6.40;1.00
10278;DHT22;5184;51.376;7.148;2024-03-23T01:14:57;6.50;1.00
10278;DHT22;5184;51.376;7.148;2024-03-23T01:17:23;6.40;1.00
10278;DHT22;5184;51.376;7.148;2024-03-23T01:19:50;6.40;1.00
10278;DHT22;5184;51.376;7.148;2024-03-23T01:22:17;6.40;1.00
10278;DHT22;5184;51.376;7.148;2024-03-23T01:24:43;6.40;1.00
10278;DHT22;5184;51.376;7.148;2024-03-23T01:27:10;6.40;1.00
10278;DHT22;5184;51.376;7.148;2024-03-23T01:29:36;6.40;1.00
10278;DHT22;5184;51.376;7.148;2024-03-23T01:32:03;6.40;1.00
10278;DHT22;5184;51.376;7.148;2024-03-23T01:34:30;6.40;1.00
10278;DHT22;5184;51.376;7.148;2024-03-23T01:36:56;6.30;1.00
10278;DHT22;5184;51.376;7.148;2024-03-23T01:39:23;6.30;1.00
10278;DHT22;5184;51.376;7.148;2024-03-23T01:41:49;6.30;1.00
10278;DHT22;5184;51.376;7.148;2024-03-23T01:44:16;6.20;1.00
10278;DHT22;5184;51.376;7.148;2024-03-23T01:46:43;6.30;1.00
10278;DHT22;5184;51.376;7.148;2024-03-23T01:49:10;6.20;99.90
10278;DHT22;5184;51.376;7.148;2024-03-23T01:51:37;6.30;1.00
10278;DHT22;5184;51.376;7.148;2024-03-23T01:54:04;6.30;1.00
10278;DHT22;5184;51.376;7.148;2024-03-23T01:56:33;6.20;99.90
10278;DHT22;5184;51.376;7.148;2024-03-23T01:59:00;6.20;99.90
10278;DHT22;5184;51.376;7.148;2024-03-23T02:01:27;6.00;99.90
10278;DHT22;5184;51.376;7.148;2024-03-23T02:03:54;6.00;99.90
10278;DHT22;5184;51.376;7.148;2024-03-23T02:06:21;6.00;99.90
10278;DHT22;5184;51.376;7.148;2024-03-23T02:08:47;6.00;99.90
10278;DHT22;5184;51.376;7.148;2024-03-23T02:11:14;6.00;99.90
10278;DHT22;5184;51.376;7.148;2024-03-23T02:13:40;6.00;99.90
10278;DHT22;5184;51.376;7.148;2024-03-23T02:16:07;5.90;99.90
10278;DHT22;5184;51.376;7.148;2024-03-23T02:18:35;5.90;99.90
10278;DHT22;5184;51.376;7.148;2024-03-23T02:21:02;5.90;99.90
10278;DHT22;5184;51.376;7.148;2024-03-23T02:23:28;6.00;1.00
10278;DHT22;5184;51.376;7.148;2024-03-23T02:25:55;6.00;1.00
10278;DHT22;5184;51.376;7.148;2024-03-23T02:28:22;6.00;1.00
10278;DHT22;5184;51.376;7.148;2024-03-23T02:30:48;5.90;1.00
10278;DHT22;5184;51.376;7.148;2024-03-23T02:33:15;5.90;1.00
10278;DHT22;5184;51.376;7.148;2024-03-23T02:35:41;5.90;1.00
10278;DHT22;5184;51.376;7.148;2024-03-23T02:38:08;5.90;1.00
10278;DHT22;5184;51.376;7.148;2024-03-23T02:40:34;5.90;1.00
10278;DHT22;5184;51.376;7.148;2024-03-23T02:43:01;5.90;1.00
10278;DHT22;5184;51.376;7.148;2024-03-23T02:45:28;5.90;1.00
10278;DHT22;5184;51.376;7.148;2024-03-23T02:47:54;5.90;1.00
10278;DHT22;5184;51.376;7.148;2024-03-23T02:50:21;5.90;1.00
10278;DHT22;5184;51.376;7.148;2024-03-23T02:52:48;6.00;1.00
10278;DHT22;5184;51.376;7.148;2024-03-23T02:55:14;6.00;1.00
10278;DHT22;5184;51.376;7.148;2024-03-23T02:57:41;6.00;1.00
10278;DHT22;5184;51.376;7.148;2024-03-23T03:00:07;6.00;1.00
10278;DHT22;5184;51.376;7.148;2024-03-23T03:02:35;5.90;1.00
10278;DHT22;5184;51.376;7.148;2024-03-23T03:05:02;5.90;1.00
10278;DHT22;5184;51.376;7.148;2024-03-23T03:07:29;5.80;1.00
10278;DHT22;5184;51.376;7.148;2024-03-23T03:09:57;5.80;1.00
10278;DHT22;5184;51.376;7.148;2024-03-23T03:12:23;5.80;1.00
10278;DHT22;5184;51.376;7.148;2024-03-23T03:14:50;5.70;1.00
10278;DHT22;5184;51.376;7.148;2024-03-23T03:17:16;5.70;1.00
10278;DHT22;5184;51.376;7.148;2024-03-23T03:19:43;5.80;1.00
10278;DHT22;5184;51.376;7.148;2024-03-23T03:22:10;5.80;1.00
10278;DHT22;5184;51.376;7.148;2024-03-23T03:24:36;5.70;1.00
10278;DHT22;5184;51.376;7.148;2024-03-23T03:27:03;5.70;1.00
10278;DHT22;5184;51.376;7.148;2024-03-23T03:29:29;5.70;1.00
10278;DHT22;5184;51.376;7.148;2024-03-23T03:31:56;5.70;1.00
10278;DHT22;5184;51.376;7.148;2024-03-23T03:34:23;5.70;1.00
10278;DHT22;5184;51.376;7.148;2024-03-23T03:36:50;5.70;1.00
10278;DHT22;5184;51.376;7.148;2024-03-23T03:39:17;5.70;1.00
10278;DHT22;5184;51.376;7.148;2024-03-23T03:41:43;5.70;1.00
10278;DHT22;5184;51.376;7.148;2024-03-23T03:44:10;5.60;1.00
10278;DHT22;5184;51.376;7.148;2024-03-23T03:46:36;5.60;1.00
10278;DHT22;5184;51.376;7.148;2024-03-23T03:49:03;5.50;1.00
10278;DHT22;5184;51.376;7.148;2024-03-23T03:51:30;5.50;1.00
10278;DHT22;5184;51.376;7.148;2024-03-23T03:53:58;5.50;1.00
10278;DHT22;5184;51.376;7.148;2024-03-23T03:56:25;5.50;1.00
10278;DHT22;5184;51.376;7.148;2024-03-23T03:58:52;5.50;1.00
10278;DHT22;5184;51.376;7.148;2024-03-23T04:01:20;5.50;1.00
10278;DHT22;5184;51.376;7.148;2024-03-23T04:03:46;5.50;1.00
10278;DHT22;5184;51.376;7.148;2024-03-23T04:06:18;5.50;1.00
10278;DHT22;5184;51.376;7.148;2024-03-23T04:08:39;5.50;1.00
10278;DHT22;5184;51.376;7.148;2024-03-23T04:11:06;5.50;1.00
10278;DHT22;5184;51.376;7.148;2024-03-23T04:13:33;5.50;1.00
10278;DHT22;5184;51.376;7.148;2024-03-23T04:15:59;5.60;1.00
10278;DHT22;5184;51.376;7.148;2024-03-23T04:18:26;5.50;1.00
10278;DHT22;5184;51.376;7.148;2024-03-23T04:20:52;5.50;1.00
10278;DHT22;5184;51.376;7.148;2024-03-23T04:23:19;5.50;1.00
10278;DHT22;5184;51.376;7.148;2024-03-23T04:25:46;5.50;1.00
10278;DHT22;5184;51.376;7.148;2024-03-23T04:28:13;5.60;1.00
10278;DHT22;5184;51.376;7.148;2024-03-23T04:30:40;5.60;1.00
10278;DHT22;5184;51.376;7.148;2024-03-23T04:33:06;5.60;1.00
10278;DHT22;5184;51.376;7.148;2024-03-23T04:35:33;5.60;1.00
10278;DHT22;5184;51.376;7.148;2024-03-23T04:37:59;5.60;1.00
10278;DHT22;5184;51.376;7.148;2024-03-23T04:40:26;5.60;1.00
10278;DHT22;5184;51.376;7.148;2024-03-23T04:42:52;5.60;1.00
10278;DHT22;5184;51.376;7.148;2024-03-23T04:45:19;5.60;1.00
10278;DHT22;5184;51.376;7.148;2024-03-23T04:47:46;5.60;1.00
10278;DHT22;5184;51.376;7.148;2024-03-23T04:50:12;5.60;1.00
10278;DHT22;5184;51.376;7.148;2024-03-23T04:52:39;5.50;1.00
10278;DHT22;5184;51.376;7.148;2024-03-23T04:55:05;5.50;1.00
10278;DHT22;5184;51.376;7.148;2024-03-23T04:57:32;5.50;1.00
10278;DHT22;5184;51.376;7.148;2024-03-23T04:59:59;5.50;1.00
10278;DHT22;5184;51.376;7.148;2024-03-23T05:02:25;5.40;1.00
10278;DHT22;5184;51.376;7.148;2024-03-23T05:04:52;5.40;1.00
10278;DHT22;5184;51.376;7.148;2024-03-23T05:07:18;5.30;1.00
10278;DHT22;5184;51.376;7.148;2024-03-23T05:09:45;5.30;1.00
10278;DHT22;5184;51.376;7.148;2024-03-23T05:12:12;5.20;1.00
10278;DHT22;5184;51.376;7.148;2024-03-23T05:14:39;5.20;1.00
10278;DHT22;5184;51.376;7.148;2024-03-23T05:17:05;5.20;1.00
10278;DHT22;5184;51.376;7.148;2024-03-23T05:19:32;5.20;1.00
10278;DHT22;5184;51.376;7.148;2024-03-23T05:21:59;5.20;1.00
10278;DHT22;5184;51.376;7.148;2024-03-23T05:24:26;5.20;1.00
10278;DHT22;5184;51.376;7.148;2024-03-23T05:26:53;5.20;1.00
10278;DHT22;5184;51.376;7.148;2024-03-23T05:29:20;5.20;1.00
10278;DHT22;5184;51.376;7.148;2024-03-23T05:31:49;5.30;1.00
10278;DHT22;5184;51.376;7.148;2024-03-23T05:34:15;5.20;1.00
10278;DHT22;5184;51.376;7.148;2024-03-23T05:36:41;5.20;1.00
10278;DHT22;5184;51.376;7.148;2024-03-23T05:39:08;5.20;1.00
10278;DHT22;5184;51.376;7.148;2024-03-23T05:41:35;5.20;1.00
10278;DHT22;5184;51.376;7.148;2024-03-23T05:44:02;5.20;1.00
10278;DHT22;5184;51.376;7.148;2024-03-23T05:46:28;5.20;1.00
10278;DHT22;5184;51.376;7.148;2024-03-23T05:48:57;5.20;1.00
10278;DHT22;5184;51.376;7.148;2024-03-23T05:51:23;5.20;1.00
10278;DHT22;5184;51.376;7.148;2024-03-23T05:53:50;5.20;1.00
10278;DHT22;5184;51.376;7.148;2024-03-23T05:56:19;5.20;1.00
10278;DHT22;5184;51.376;7.148;2024-03-23T05:58:44;5.20;1.00
10278;DHT22;5184;51.376;7.148;2024-03-23T06:01:11;5.20;1.00
10278;DHT22;5184;51.376;7.148;2024-03-23T06:03:38;5.10;1.00
10278;DHT22;5184;51.376;7.148;2024-03-23T06:06:04;5.20;1.00
10278;DHT22;5184;51.376;7.148;2024-03-23T06:08:31;5.20;1.00
10278;DHT22;5184;51.376;7.148;2024-03-23T06:10:59;5.20;1.00
10278;DHT22;5184;51.376;7.148;2024-03-23T06:13:26;5.20;1.00
10278;DHT22;5184;51.376;7.148;2024-03-23T06:15:54;5.20;1.00
10278;DHT22;5184;51.376;7.148;2024-03-23T06:18:21;5.20;1.00
10278;DHT22;5184;51.376;7.148;2024-03-23T06:20:48;5.20;1.00
10278;DHT22;5184;51.376;7.148;2024-03-23T06:23:15;5.10;1.00
10278;DHT22;5184;51.376;7.148;2024-03-23T06:25:41;5.20;1.00
10278;DHT22;5184;51.376;7.148;2024-03-23T06:28:08;5.20;1.00
10278;DHT22;5184;51.376;7.148;2024-03-23T06:30:35;5.20;1.00
10278;DHT22;5184;51.376;7.148;2024-03-23T06:33:01;5.20;1.00
10278;DHT22;5184;51.376;7.148;2024-03-23T06:35:28;5.20;1.00
10278;DHT22;5184;51.376;7.148;2024-03-23T06:37:54;5.20;1.00
10278;DHT22;5184;51.376;7.148;2024-03-23T06:40:21;5.20;1.00
10278;DHT22;5184;51.376;7.148;2024-03-23T06:42:48;5.80;1.00
10278;DHT22;5184;51.376;7.148;2024-03-23T06:45:16;5.30;1.00
10278;DHT22;5184;51.376;7.148;2024-03-23T06:47:42;5.30;1.00
10278;DHT22;5184;51.376;7.148;2024-03-23T06:50:09;5.30;1.00
10278;DHT22;5184;51.376;7.148;2024-03-23T06:52:35;5.40;1.00
10278;DHT22;5184;51.376;7.148;2024-03-23T06:55:03;5.50;1.00
10278;DHT22;5184;51.376;7.148;2024-03-23T06:57:30;5.50;1.00
10278;DHT22;5184;51.376;7.148;2024-03-23T06:59:58;5.50;1.00
10278;DHT22;5184;51.376;7.148;2024-03-23T07:02:25;5.50;1.00
10278;DHT22;5184;51.376;7.148;2024-03-23T07:04:52;5.50;1.00
10278;DHT22;5184;51.376;7.148;2024-03-23T07:07:20;5.50;1.00
10278;DHT22;5184;51.376;7.148;2024-03-23T07:09:47;5.60;1.00
10278;DHT22;5184;51.376;7.148;2024-03-23T07:12:14;5.60;1.00
10278;DHT22;5184;51.376;7.148;2024-03-23T07:14:40;5.70;1.00
10278;DHT22;5184;51.376;7.148;2024-03-23T07:17:08;5.70;1.00
10278;DHT22;5184;51.376;7.148;2024-03-23T07:19:35;5.80;1.00
10278;DHT22;5184;51.376;7.148;2024-03-23T07:22:02;5.80;1.00
10278;DHT22;5184;51.376;7.148;2024-03-23T07:24:28;5.90;1.00
10278;DHT22;5184;51.376;7.148;2024-03-23T07:26:55;5.80;1.00
10278;DHT22;5184;51.376;7.148;2024-03-23T07:29:21;5.80;1.00
10278;DHT22;5184;51.376;7.148;2024-03-23T07:31:48;5.80;1.00
10278;DHT22;5184;51.376;7.148;2024-03-23T07:34:15;5.80;1.00
10278;DHT22;5184;51.376;7.148;2024-03-23T07:36:41;5.90;1.00
10278;DHT22;5184;51.376;7.148;2024-03-23T07:39:08;6.00;1.00
10278;DHT22;5184;51.376;7.148;2024-03-23T07:41:34;6.00;1.00
10278;DHT22;5184;51.376;7.148;2024-03-23T07:44:01;5.90;1.00
10278;DHT22;5184;51.376;7.148;2024-03-23T07:46:28;6.00;1.00
10278;DHT22;5184;51.376;7.148;2024-03-23T07:48:56;6.00;1.00
10278;DHT22;5184;51.376;7.148;2024-03-23T07:51:23;6.10;1.00
10278;DHT22;5184;51.376;7.148;2024-03-23T07:53:50;6.10;1.00
10278;DHT22;5184;51.376;7.148;2024-03-23T07:56:18;6.30;1.00
10278;DHT22;5184;51.376;7.148;2024-03-23T07:58:44;6.30;1.00
10278;DHT22;5184;51.376;7.148;2024-03-23T08:01:11;6.40;1.00
10278;DHT22;5184;51.376;7.148;2024-03-23T08:03:39;6.40;99.90
10278;DHT22;5184;51.376;7.148;2024-03-23T08:06:10;6.40;99.90
10278;DHT22;5184;51.376;7.148;2024-03-23T08:08:36;6.40;99.90
10278;DHT22;5184;51.376;7.148;2024-03-23T08:11:03;6.50;99.90
10278;DHT22;5184;51.376;7.148;2024-03-23T08:13:31;6.60;99.90
10278;DHT22;5184;51.376;7.148;2024-03-23T08:15:58;6.70;99.90
10278;DHT22;5184;51.376;7.148;2024-03-23T08:18:25;6.70;99.90
10278;DHT22;5184;51.376;7.148;2024-03-23T08:20:58;6.70;99.90
10278;DHT22;5184;51.376;7.148;2024-03-23T08:23:25;6.70;99.80
10278;DHT22;5184;51.376;7.148;2024-03-23T08:26:00;6.80;1.00
10278;DHT22;5184;51.376;7.148;2024-03-23T08:28:27;6.80;1.00
10278;DHT22;5184;51.376;7.148;2024-03-23T08:30:54;6.90;99.90
10278;DHT22;5184;51.376;7.148;2024-03-23T08:33:20;6.90;1.00
10278;DHT22;5184;51.376;7.148;2024-03-23T08:35:54;7.10;1.00
10278;DHT22;5184;51.376;7.148;2024-03-23T08:38:20;7.10;1.00
10278;DHT22;5184;51.376;7.148;2024-03-23T08:40:47;7.20;1.00
10278;DHT22;5184;51.376;7.148;2024-03-23T08:43:14;7.30;99.90
10278;DHT22;5184;51.376;7.148;2024-03-23T08:45:41;7.30;99.90
10278;DHT22;5184;51.376;7.148;2024-03-23T08:48:09;7.20;99.90
10278;DHT22;5184;51.376;7.148;2024-03-23T08:50:36;7.30;99.90
10278;DHT22;5184;51.376;7.148;2024-03-23T08:53:03;7.50;99.90
10278;DHT22;5184;51.376;7.148;2024-03-23T08:55:30;7.50;99.90
10278;DHT22;5184;51.376;7.148;2024-03-23T08:57:57;7.60;99.90
10278;DHT22;5184;51.376;7.148;2024-03-23T09:00:25;7.50;1.00
10278;DHT22;5184;51.376;7.148;2024-03-23T09:02:52;6.40;99.90
10278;DHT22;5184;51.376;7.148;2024-03-23T09:05:19;5.30;99.90
10278;DHT22;5184;51.376;7.148;2024-03-23T09:07:46;5.30;99.90
10278;DHT22;5184;51.376;7.148;2024-03-23T09:10:13;4.50;99.90
10278;DHT22;5184;51.376;7.148;2024-03-23T09:12:39;4.20;99.90
10278;DHT22;5184;51.376;7.148;2024-03-23T09:15:06;4.20;99.90
10278;DHT22;5184;51.376;7.148;2024-03-23T09:17:33;3.80;99.90
10278;DHT22;5184;51.376;7.148;2024-03-23T09:20:00;4.40;99.90
10278;DHT22;5184;51.376;7.148;2024-03-23T09:22:27;4.50;1.00
10278;DHT22;5184;51.376;7.148;2024-03-23T09:24:55;4.60;99.90
10278;DHT22;5184;51.376;7.148;2024-03-23T09:27:21;4.60;99.90
10278;DHT22;5184;51.376;7.148;2024-03-23T09:29:48;4.70;1.00
10278;DHT22;5184;51.376;7.148;2024-03-23T09:32:15;4.90;1.00
10278;DHT22;5184;51.376;7.148;2024-03-23T09:34:43;5.00;1.00
10278;DHT22;5184;51.376;7.148;2024-03-23T09:37:10;5.10;1.00
10278;DHT22;5184;51.376;7.148;2024-03-23T09:39:37;5.10;1.00
10278;DHT22;5184;51.376;7.148;2024-03-23T09:42:03;5.20;1.00
10278;DHT22;5184;51.376;7.148;2024-03-23T09:44:30;5.40;1.00
10278;DHT22;5184;51.376;7.148;2024-03-23T09:46:57;5.80;1.00
10278;DHT22;5184;51.376;7.148;2024-03-23T09:49:25;6.00;99.90
10278;DHT22;5184;51.376;7.148;2024-03-23T09:51:52;6.20;99.90
10278;DHT22;5184;51.376;7.148;2024-03-23T09:54:19;6.40;99.90
10278;DHT22;5184;51.376;7.148;2024-03-23T09:56:47;6.50;1.00
10278;DHT22;5184;51.376;7.148;2024-03-23T09:59:14;6.70;1.00
10278;DHT22;5184;51.376;7.148;2024-03-23T10:01:41;6.90;1.00
10278;DHT22;5184;51.376;7.148;2024-03-23T10:04:09;7.20;1.00
10278;DHT22;5184;51.376;7.148;2024-03-23T10:06:36;7.30;99.90
10278;DHT22;5184;51.376;7.148;2024-03-23T10:09:09;7.50;99.90
10278;DHT22;5184;51.376;7.148;2024-03-23T10:11:31;7.80;1.00
10278;DHT22;5184;51.376;7.148;2024-03-23T10:13:58;7.50;99.90
10278;DHT22;5184;51.376;7.148;2024-03-23T10:16:25;7.40;99.90
10278;DHT22;5184;51.376;7.148;2024-03-23T10:18:53;7.30;1.00
10278;DHT22;5184;51.376;7.148;2024-03-23T10:21:20;7.40;1.00
10278;DHT22;5184;51.376;7.148;2024-03-23T10:23:47;7.60;1.00
10278;DHT22;5184;51.376;7.148;2024-03-23T10:26:18;7.70;1.00
10278;DHT22;5184;51.376;7.148;2024-03-23T10:29:00;7.70;1.00
10278;DHT22;5184;51.376;7.148;2024-03-23T10:31:28;7.80;1.00
10278;DHT22;5184;51.376;7.148;2024-03-23T10:33:54;7.80;99.90
10278;DHT22;5184;51.376;7.148;2024-03-23T10:36:22;7.90;99.90
10278;DHT22;5184;51.376;7.148;2024-03-23T10:38:50;8.10;99.90
10278;DHT22;5184;51.376;7.148;2024-03-23T10:41:17;8.10;29.50
10278;DHT22;5184;51.376;7.148;2024-03-23T10:43:46;8.00;99.90
10278;DHT22;5184;51.376;7.148;2024-03-23T10:46:13;8.10;99.90
10278;DHT22;5184;51.376;7.148;2024-03-23T10:48:40;8.10;99.90
10278;DHT22;5184;51.376;7.148;2024-03-23T10:51:07;8.10;94.60
10278;DHT22;5184;51.376;7.148;2024-03-23T10:53:33;8.10;1.00
10278;DHT22;5184;51.376;7.148;2024-03-23T10:56:00;8.00;1.00
10278;DHT22;5184;51.376;7.148;2024-03-23T10:58:29;7.90;1.00
10278;DHT22;5184;51.376;7.148;2024-03-23T11:00:53;7.80;1.00
10278;DHT22;5184;51.376;7.148;2024-03-23T11:03:31;7.50;1.00
10278;DHT22;5184;51.376;7.148;2024-03-23T11:05:57;6.90;99.90
10278;DHT22;5184;51.376;7.148;2024-03-23T11:08:40;5.60;1.00
10278;DHT22;5184;51.376;7.148;2024-03-23T11:11:13;5.90;99.90
10278;DHT22;5184;51.376;7.148;2024-03-23T11:13:38;5.30;99.90
10278;DHT22;5184;51.376;7.148;2024-03-23T11:16:24;5.50;25.60
10278;DHT22;5184;51.376;7.148;2024-03-23T11:18:51;5.70;99.90
10278;DHT22;5184;51.376;7.148;2024-03-23T11:23:55;6.10;1.00
10278;DHT22;5184;51.376;7.148;2024-03-23T11:26:21;6.20;99.90
10278;DHT22;5184;51.376;7.148;2024-03-23T11:28:48;6.30;1.00
10278;DHT22;5184;51.376;7.148;2024-03-23T11:31:15;6.30;1.00
10278;DHT22;5184;51.376;7.148;2024-03-23T11:33:41;6.30;99.90
10278;DHT22;5184;51.376;7.148;2024-03-23T11:36:08;6.30;1.00
10278;DHT22;5184;51.376;7.148;2024-03-23T11:38:36;6.40;99.90
10278;DHT22;5184;51.376;7.148;2024-03-23T11:41:02;6.40;99.90
10278;DHT22;5184;51.376;7.148;2024-03-23T11:43:28;6.60;99.90
10278;DHT22;5184;51.376;7.148;2024-03-23T11:45:56;6.80;1.00
10278;DHT22;5184;51.376;7.148;2024-03-23T11:48:23;6.90;36.40
10278;DHT22;5184;51.376;7.148;2024-03-23T11:50:54;7.00;1.00
10278;DHT22;5184;51.376;7.148;2024-03-23T11:53:19;7.40;99.90
10278;DHT22;5184;51.376;7.148;2024-03-23T11:55:46;7.20;1.00
10278;DHT22;5184;51.376;7.148;2024-03-23T11:58:13;7.40;99.90
10278;DHT22;5184;51.376;7.148;2024-03-23T12:00:40;7.70;1.00
10278;DHT22;5184;51.376;7.148;2024-03-23T12:03:07;7.90;1.00
10278;DHT22;5184;51.376;7.148;2024-03-23T12:05:35;8.10;1.00
10278;DHT22;5184;51.376;7.148;2024-03-23T12:10:41;8.10;99.90
10278;DHT22;5184;51.376;7.148;2024-03-23T12:13:07;8.30;99.90
10278;DHT22;5184;51.376;7.148;2024-03-23T12:15:34;8.40;99.90
10278;DHT22;5184;51.376;7.148;2024-03-23T12:18:07;7.40;1.00
10278;DHT22;5184;51.376;7.148;2024-03-23T12:20:34;7.40;1.00
10278;DHT22;5184;51.376;7.148;2024-03-23T12:23:07;6.50;99.90
10278;DHT22;5184;51.376;7.148;2024-03-23T12:25:34;6.10;1.00
10278;DHT22;5184;51.376;7.148;2024-03-23T12:28:00;5.80;99.90
10278;DHT22;5184;51.376;7.148;2024-03-23T12:30:27;5.60;1.00
10278;DHT22;5184;51.376;7.148;2024-03-23T12:32:53;5.50;1.00
10278;DHT22;5184;51.376;7.148;2024-03-23T12:35:20;5.50;99.90
10278;DHT22;5184;51.376;7.148;2024-03-23T12:37:47;5.60;99.90
10278;DHT22;5184;51.376;7.148;2024-03-23T12:40:13;5.80;1.00
10278;DHT22;5184;51.376;7.148;2024-03-23T12:42:40;6.10;99.90
10278;DHT22;5184;51.376;7.148;2024-03-23T12:45:07;6.40;1.00
10278;DHT22;5184;51.376;7.148;2024-03-23T12:47:34;6.60;16.90
10278;DHT22;5184;51.376;7.148;2024-03-23T12:50:02;6.50;99.90
10278;DHT22;5184;51.376;7.148;2024-03-23T12:52:28;6.50;99.90
10278;DHT22;5184;51.376;7.148;2024-03-23T12:54:56;6.70;1.00
10278;DHT22;5184;51.376;7.148;2024-03-23T12:57:23;6.70;1.00
10278;DHT22;5184;51.376;7.148;2024-03-23T12:59:50;7.00;99.90
10278;DHT22;5184;51.376;7.148;2024-03-23T13:02:18;7.20;1.00
10278;DHT22;5184;51.376;7.148;2024-03-23T13:04:44;7.20;1.00
10278;DHT22;5184;51.376;7.148;2024-03-23T13:07:10;7.30;1.00
10278;DHT22;5184;51.376;7.148;2024-03-23T13:09:37;7.20;1.00
10278;DHT22;5184;51.376;7.148;2024-03-23T13:12:04;7.20;1.00
10278;DHT22;5184;51.376;7.148;2024-03-23T13:14:31;6.80;1.00
10278;DHT22;5184;51.376;7.148;2024-03-23T13:16:58;6.20;99.90
10278;DHT22;5184;51.376;7.148;2024-03-23T13:19:26;5.70;1.00
10278;DHT22;5184;51.376;7.148;2024-03-23T13:21:53;5.40;43.40
10278;DHT22;5184;51.376;7.148;2024-03-23T13:24:22;5.30;99.90
10278;DHT22;5184;51.376;7.148;2024-03-23T13:26:49;5.30;99.90
10278;DHT22;5184;51.376;7.148;2024-03-23T13:29:15;5.60;99.90
10278;DHT22;5184;51.376;7.148;2024-03-23T13:31:42;5.90;99.90
10278;DHT22;5184;51.376;7.148;2024-03-23T13:34:08;6.20;1.00
10278;DHT22;5184;51.376;7.148;2024-03-23T13:36:35;6.40;99.90
10278;DHT22;5184;51.376;7.148;2024-03-23T13:39:02;6.70;99.90
10278;DHT22;5184;51.376;7.148;2024-03-23T13:41:29;7.20;99.90
10278;DHT22;5184;51.376;7.148;2024-03-23T13:43:56;7.30;1.00
10278;DHT22;5184;51.376;7.148;2024-03-23T13:46:23;7.30;1.00
10278;DHT22;5184;51.376;7.148;2024-03-23T13:48:51;7.30;1.00
10278;DHT22;5184;51.376;7.148;2024-03-23T13:51:22;7.30;99.90
10278;DHT22;5184;51.376;7.148;2024-03-23T13:53:45;7.10;99.90
10278;DHT22;5184;51.376;7.148;2024-03-23T13:56:13;7.00;99.90
10278;DHT22;5184;51.376;7.148;2024-03-23T13:58:40;7.00;1.00
10278;DHT22;5184;51.376;7.148;2024-03-23T14:01:07;6.90;1.00
10278;DHT22;5184;51.376;7.148;2024-03-23T14:03:35;6.90;19.00
10278;DHT22;5184;51.376;7.148;2024-03-23T14:06:02;7.10;1.00
10278;DHT22;5184;51.376;7.148;2024-03-23T14:08:29;7.10;1.00
10278;DHT22;5184;51.376;7.148;2024-03-23T14:10:55;7.40;1.00
10278;DHT22;5184;51.376;7.148;2024-03-23T14:13:22;7.60;99.90
10278;DHT22;5184;51.376;7.148;2024-03-23T14:15:52;7.80;99.90
10278;DHT22;5184;51.376;7.148;2024-03-23T14:18:15;7.90;99.90
10278;DHT22;5184;51.376;7.148;2024-03-23T14:20:42;8.00;99.90
10278;DHT22;5184;51.376;7.148;2024-03-23T14:23:08;8.20;99.90
10278;DHT22;5184;51.376;7.148;2024-03-23T14:25:36;7.70;96.80
10278;DHT22;5184;51.376;7.148;2024-03-23T14:28:03;7.60;99.90
10278;DHT22;5184;51.376;7.148;2024-03-23T14:30:30;7.60;99.90
10278;DHT22;5184;51.376;7.148;2024-03-23T14:32:57;7.50;99.90
10278;DHT22;5184;51.376;7.148;2024-03-23T14:35:23;8.00;79.70
10278;DHT22;5184;51.376;7.148;2024-03-23T14:37:50;8.30;1.00
10278;DHT22;5184;51.376;7.148;2024-03-23T14:40:16;8.20;1.00
10278;DHT22;5184;51.376;7.148;2024-03-23T14:42:43;8.00;1.00
10278;DHT22;5184;51.376;7.148;2024-03-23T14:45:10;8.00;22.50
10278;DHT22;5184;51.376;7.148;2024-03-23T14:47:36;8.10;1.00
10278;DHT22;5184;51.376;7.148;2024-03-23T14:50:04;8.60;1.00
10278;DHT22;5184;51.376;7.148;2024-03-23T14:52:31;8.60;1.00
10278;DHT22;5184;51.376;7.148;2024-03-23T14:54:57;8.60;1.00
10278;DHT22;5184;51.376;7.148;2024-03-23T14:57:24;8.40;1.00
10278;DHT22;5184;51.376;7.148;2024-03-23T14:59:51;7.70;1.00
10278;DHT22;5184;51.376;7.148;2024-03-23T15:02:19;7.60;1.00
10278;DHT22;5184;51.376;7.148;2024-03-23T15:04:46;7.50;1.00
10278;DHT22;5184;51.376;7.148;2024-03-23T15:07:13;7.60;1.00
10278;DHT22;5184;51.376;7.148;2024-03-23T15:09:41;7.40;6.80
10278;DHT22;5184;51.376;7.148;2024-03-23T15:12:08;7.40;99.90
10278;DHT22;5184;51.376;7.148;2024-03-23T15:14:35;7.50;99.90
10278;DHT22;5184;51.376;7.148;2024-03-23T15:17:03;7.60;99.90
10278;DHT22;5184;51.376;7.148;2024-03-23T15:19:29;7.60;99.90
10278;DHT22;5184;51.376;7.148;2024-03-23T15:21:57;7.60;99.90
10278;DHT22;5184;51.376;7.148;2024-03-23T15:24:24;7.50;99.90
10278;DHT22;5184;51.376;7.148;2024-03-23T15:26:52;7.50;99.90
10278;DHT22;5184;51.376;7.148;2024-03-23T15:29:20;7.50;99.90
10278;DHT22;5184;51.376;7.148;2024-03-23T15:31:46;7.80;93.10
10278;DHT22;5184;51.376;7.148;2024-03-23T15:34:14;7.90;1.00
10278;DHT22;5184;51.376;7.148;2024-03-23T15:36:41;8.30;1.00
10278;DHT22;5184;51.376;7.148;2024-03-23T15:39:08;9.10;1.00
10278;DHT22;5184;51.376;7.148;2024-03-23T15:41:36;10.20;1.00
10278;DHT22;5184;51.376;7.148;2024-03-23T15:44:03;10.50;99.90
10278;DHT22;5184;51.376;7.148;2024-03-23T15:46:30;10.50;99.90
10278;DHT22;5184;51.376;7.148;2024-03-23T15:48:56;10.30;99.90
10278;DHT22;5184;51.376;7.148;2024-03-23T15:51:24;11.00;99.90
10278;DHT22;5184;51.376;7.148;2024-03-23T15:53:50;11.00;99.90
10278;DHT22;5184;51.376;7.148;2024-03-23T15:56:17;11.20;99.90
10278;DHT22;5184;51.376;7.148;2024-03-23T15:58:44;10.90;99.90
10278;DHT22;5184;51.376;7.148;2024-03-23T16:01:10;10.70;99.90
10278;DHT22;5184;51.376;7.148;2024-03-23T16:03:37;10.40;99.90
10278;DHT22;5184;51.376;7.148;2024-03-23T16:06:04;9.70;99.90
10278;DHT22;5184;51.376;7.148;2024-03-23T16:08:31;9.20;99.90
10278;DHT22;5184;51.376;7.148;2024-03-23T16:11:01;9.00;99.90
10278;DHT22;5184;51.376;7.148;2024-03-23T16:13:27;9.00;99.90
10278;DHT22;5184;51.376;7.148;2024-03-23T16:15:55;8.90;99.90
10278;DHT22;5184;51.376;7.148;2024-03-23T16:18:22;8.80;99.90
10278;DHT22;5184;51.376;7.148;2024-03-23T16:20:55;8.80;99.90
10278;DHT22;5184;51.376;7.148;2024-03-23T16:23:21;8.70;99.90
10278;DHT22;5184;51.376;7.148;2024-03-23T16:25:49;8.50;99.90
10278;DHT22;5184;51.376;7.148;2024-03-23T16:28:15;8.30;1.00
10278;DHT22;5184;51.376;7.148;2024-03-23T16:30:42;8.30;1.00
10278;DHT22;5184;51.376;7.148;2024-03-23T16:33:08;8.70;1.00
10278;DHT22;5184;51.376;7.148;2024-03-23T16:35:35;9.50;1.00
10278;DHT22;5184;51.376;7.148;2024-03-23T16:38:01;10.10;99.90
10278;DHT22;5184;51.376;7.148;2024-03-23T16:40:28;10.30;99.90
10278;DHT22;5184;51.376;7.148;2024-03-23T16:42:55;10.20;99.90
10278;DHT22;5184;51.376;7.148;2024-03-23T16:45:21;10.20;99.90
10278;DHT22;5184;51.376;7.148;2024-03-23T16:47:49;9.60;99.90
10278;DHT22;5184;51.376;7.148;2024-03-23T16:50:16;9.10;99.90
10278;DHT22;5184;51.376;7.148;2024-03-23T16:52:43;9.10;99.90
10278;DHT22;5184;51.376;7.148;2024-03-23T16:55:09;9.10;99.90
10278;DHT22;5184;51.376;7.148;2024-03-23T16:57:36;9.50;99.90
10278;DHT22;5184;51.376;7.148;2024-03-23T17:00:05;9.40;99.90
10278;DHT22;5184;51.376;7.148;2024-03-23T17:02:32;9.40;99.90
10278;DHT22;5184;51.376;7.148;2024-03-23T17:04:59;8.90;99.90
10278;DHT22;5184;51.376;7.148;2024-03-23T17:07:26;8.10;99.90
10278;DHT22;5184;51.376;7.148;2024-03-23T17:09:54;7.50;1.00